aviador You're here:

KOKC Decoded Metar

OKLAHOMA CITY in OK, USA
Report Time2018-07-23 14:52:00
UTC Time2018-07-23 15:46:33
Flight Rules vfr VFR
Wind060° at 13 kt
W.Decomp.*RWY 36: 7.5 kt HW 10.6 kt RCW
RWY 35: 5.5 kt HW 11.8 kt RCW
RWY 13: 3.4 kt HW 12.6 kt LCW
W.Rank060° ranks 22
Current wind is above 060° avg. (7.8)
Visibility9999 m
Phenomena:N/A
Clouds:Few 150 Hf
Broken 180 Hf
Broken 250 Hf
Expected CloudBase > 3,600 ft AGL from Temp-Dew spread
Ceiling18,000 ft
Temp26°C (ISA +14)
Dew Point17°C (58% RH)
AAT23.7°C
QNH1017 hPa
Density Alt2,969 ft
Elevation1,280 ft
Report Wrong Elevation
Raw Report
KOKC 231452Z 06013KT 10SM FEW150 BKN180 BKN250 26/17 A3003 RMK AO2
SLP151 T02610167 51011=

Extra information for KOKC:More info

Metar Taf Metar & Taf Last 4 Metars F.Rules Stats Wind Profile Meteogram Temp Stats Airport Information Weather charts Add Link Nearby VenuesMetar ALERT Operation Metar Decoded Social comments

AIRNAV info for KOKC